Time;durP1;ratioP1;P1;durP2;ratioP2;P2;SDS_P1;SDS_P2;PMS_P1;PMS_P2;Temp;Humidity;BMP_temperature;BMP_pressure;BME280_temperature;BME280_humidity;BME280_pressure;Samples;Min_cycle;Max_cycle;Signal;HPM_P1;HPM_P2
2022/11/23 00:00:01;;;;;;;4.00;0.80;;;;;;;8.75;75.28;99021.25;5027067;28;20453;-76
2022/11/23 00:02:26;;;;;;;3.63;1.07;;;;;;;8.75;74.89;99016.66;5014041;28;20449;-76
2022/11/23 00:04:51;;;;;;;4.90;1.30;;;;;;;8.76;75.23;99014.75;5023051;28;20793;-76
2022/11/23 00:07:17;;;;;;;4.70;1.10;;;;;;;8.74;75.04;99016.91;5029120;28;20414;-76
2022/11/23 00:09:42;;;;;;;4.10;1.10;;;;;;;8.70;75.08;99019.34;5016498;28;20427;-76
2022/11/23 00:12:08;;;;;;;3.85;0.98;;;;;;;8.74;74.88;99019.63;5026559;28;20551;-76
2022/11/23 00:14:33;;;;;;;3.30;1.10;;;;;;;8.76;74.82;99012.06;5021790;28;20831;-76
2022/11/23 00:16:58;;;;;;;1.77;0.93;;;;;;;8.75;75.19;99005.88;5023789;28;20415;-76
2022/11/23 00:19:24;;;;;;;3.28;1.23;;;;;;;8.70;74.71;99010.44;5017553;28;20395;-76
2022/11/23 00:21:49;;;;;;;4.07;1.10;;;;;;;8.66;75.05;99012.06;5012157;28;20430;-76
2022/11/23 00:24:14;;;;;;;3.87;1.13;;;;;;;8.64;74.61;99017.72;5025375;28;20484;-76
2022/11/23 00:26:39;;;;;;;3.20;1.20;;;;;;;8.61;75.08;99010.16;5020841;28;20886;-76
2022/11/23 00:29:05;;;;;;;3.33;1.20;;;;;;;8.58;74.97;99016.09;5018707;28;20447;-76
2022/11/23 00:31:30;;;;;;;6.50;1.20;;;;;;;8.60;75.04;99011.22;5014653;28;20452;-76
2022/11/23 00:33:57;;;;;;;3.57;1.40;;;;;;;8.63;74.98;99015.28;5011967;28;20420;-76
2022/11/23 00:36:25;;;;;;;4.95;1.00;;;;;;;8.60;75.27;99023.91;5019855;28;20391;-76
2022/11/23 00:38:53;;;;;;;3.10;0.90;;;;;;;8.57;75.18;99022.56;5018022;28;20404;-76
2022/11/23 00:41:20;;;;;;;4.28;1.30;;;;;;;8.55;74.98;99023.91;5027760;28;20390;-76
2022/11/23 00:43:46;;;;;;;2.17;0.98;;;;;;;8.53;74.99;99026.06;5013364;28;20927;-76
2022/11/23 00:46:26;;;;;;;3.65;1.27;;;;;;;8.54;74.91;99025.78;5012917;28;20408;-76
2022/11/23 00:48:54;;;;;;;2.87;1.13;;;;;;;8.49;74.87;99024.97;5036837;28;20413;-76
2022/11/23 00:51:21;;;;;;;5.68;1.02;;;;;;;8.44;74.88;99016.84;5016572;28;20417;-76
2022/11/23 00:53:49;;;;;;;3.08;0.93;;;;;;;8.49;75.30;99025.78;5017138;28;20887;-76
2022/11/23 00:56:14;;;;;;;3.40;1.03;;;;;;;8.56;74.99;99020.94;5030358;28;20910;-76
2022/11/23 00:58:39;;;;;;;4.47;0.87;;;;;;;8.58;74.77;99018.78;5017710;28;20459;-76
2022/11/23 01:01:13;;;;;;;3.05;0.95;;;;;;;8.55;75.22;99024.72;5027605;28;20901;-76
2022/11/23 01:03:43;;;;;;;2.95;1.02;;;;;;;8.55;74.89;99022.03;5017332;28;20479;-76
2022/11/23 01:06:11;;;;;;;1.50;0.83;;;;;;;8.55;74.71;99024.72;5019456;28;21075;-76
2022/11/23 01:08:37;;;;;;;3.17;0.65;;;;;;;8.51;74.97;99023.63;5014605;28;20448;-76
2022/11/23 01:11:07;;;;;;;3.63;0.80;;;;;;;8.49;74.58;99035.78;5028558;28;20490;-76
2022/11/23 01:13:32;;;;;;;3.92;0.90;;;;;;;8.50;75.18;99030.09;5020459;28;20433;-76
2022/11/23 01:15:58;;;;;;;4.55;0.90;;;;;;;8.51;75.03;99030.91;5025881;28;21063;-76
2022/11/23 01:18:24;;;;;;;3.03;1.10;;;;;;;8.55;74.68;99032.00;5014266;28;20405;-76
2022/11/23 01:20:50;;;;;;;2.63;0.90;;;;;;;8.57;74.85;99037.94;5030904;28;20402;-76
2022/11/23 01:23:16;;;;;;;3.27;0.70;;;;;;;8.60;74.89;99038.22;5020493;28;20735;-76
2022/11/23 01:25:41;;;;;;;2.07;1.03;;;;;;;8.64;74.46;99035.81;5032959;28;20405;-76
2022/11/23 01:28:06;;;;;;;2.07;0.50;;;;;;;8.65;74.43;99032.03;5041367;28;20406;-76
2022/11/23 01:30:33;;;;;;;5.70;0.70;;;;;;;8.67;74.68;99038.78;5018268;28;20454;-76
2022/11/23 01:32:58;;;;;;;3.20;0.90;;;;;;;8.68;74.19;99037.72;5028879;28;20550;-76
2022/11/23 01:35:24;;;;;;;4.37;1.10;;;;;;;8.71;74.54;99047.16;5023199;28;20621;-76
2022/11/23 01:37:49;;;;;;;6.47;1.50;;;;;;;8.71;73.94;99036.38;5024574;28;20413;-76
2022/11/23 01:40:15;;;;;;;3.63;0.93;;;;;;;8.71;74.56;99036.38;5023418;28;20408;-76
2022/11/23 01:43:13;;;;;;;2.70;0.77;;;;;;;8.70;74.06;99032.03;5018080;28;20764;-76
2022/11/23 01:45:44;;;;;;;3.00;0.52;;;;;;;8.69;74.30;99036.63;5017405;28;20435;-76
2022/11/23 01:48:19;;;;;;;3.83;0.80;;;;;;;8.71;73.89;99034.47;5014379;28;20396;-76
2022/11/23 01:50:47;;;;;;;7.15;0.88;;;;;;;8.70;73.71;99040.94;5028889;28;20439;-76
2022/11/23 01:53:13;;;;;;;1.50;0.90;;;;;;;8.71;73.99;99037.19;5014201;28;20393;-76
2022/11/23 01:55:38;;;;;;;6.57;1.42;;;;;;;8.73;74.11;99039.59;5023219;28;20424;-76
2022/11/23 01:58:06;;;;;;;3.60;0.90;;;;;;;8.75;73.92;99037.47;5030059;28;20387;-76
2022/11/23 02:00:32;;;;;;;2.30;0.70;;;;;;;8.74;73.78;99039.34;5013933;28;20856;-76
2022/11/23 02:02:59;;;;;;;3.03;1.00;;;;;;;8.75;73.82;99034.75;5021392;28;20406;-76
2022/11/23 02:05:33;;;;;;;7.72;1.02;;;;;;;8.75;73.53;99035.56;5020748;28;20400;-76
2022/11/23 02:07:59;;;;;;;1.95;0.88;;;;;;;8.75;73.77;99040.97;5019221;28;20424;-76
2022/11/23 02:10:26;;;;;;;6.63;1.00;;;;;;;8.77;73.66;99044.22;5028455;28;20393;-76
2022/11/23 02:12:52;;;;;;;2.30;1.00;;;;;;;8.79;73.69;99044.75;5022827;28;20423;-76
2022/11/23 02:15:17;;;;;;;3.75;1.30;;;;;;;8.78;73.55;99040.44;5018173;28;20523;-76
2022/11/23 02:17:43;;;;;;;4.27;1.17;;;;;;;8.79;73.46;99049.34;5017919;28;20503;-76
2022/11/23 02:20:13;;;;;;;5.13;0.63;;;;;;;8.79;73.54;99052.06;5023484;28;20973;-76
2022/11/23 02:23:03;;;;;;;6.30;1.13;;;;;;;8.80;74.13;99054.47;5022593;28;20444;-76
2022/11/23 02:25:42;;;;;;;4.88;0.80;;;;;;;8.79;73.84;99054.75;5031593;28;20558;-76
2022/11/23 02:28:08;;;;;;;4.57;0.85;;;;;;;8.81;73.92;99047.19;5018508;28;20409;-76
2022/11/23 02:30:35;;;;;;;5.03;1.38;;;;;;;8.79;73.90;99052.84;5024232;28;20397;-76
2022/11/23 02:33:04;;;;;;;7.38;1.50;;;;;;;8.81;74.10;99041.78;5015605;28;20443;-76
2022/11/23 02:35:29;;;;;;;1.90;1.00;;;;;;;8.81;74.41;99041.78;5018760;28;20973;-76
2022/11/23 02:37:55;;;;;;;5.50;0.70;;;;;;;8.82;73.95;99041.50;5024664;28;20504;-76
2022/11/23 02:40:32;;;;;;;4.10;1.15;;;;;;;8.81;74.37;99045.31;5021836;28;20395;-76
2022/11/23 02:42:59;;;;;;;5.20;1.30;;;;;;;8.83;74.72;99045.03;5017213;28;20424;-76
2022/11/23 02:45:36;;;;;;;3.78;1.05;;;;;;;8.85;74.90;99043.69;5015516;28;20432;-76
2022/11/23 02:48:02;;;;;;;3.75;1.00;;;;;;;8.88;74.71;99042.34;5025730;28;20397;-76
2022/11/23 02:50:27;;;;;;;5.35;1.35;;;;;;;8.83;74.70;99040.44;5012825;28;20442;-76
2022/11/23 02:52:53;;;;;;;3.23;0.90;;;;;;;8.77;74.51;99028.00;5018468;28;20809;-76
2022/11/23 02:55:18;;;;;;;3.23;0.93;;;;;;;8.75;74.94;99032.06;5026921;28;20851;-77
2022/11/23 02:57:43;;;;;;;4.47;0.87;;;;;;;8.74;74.68;99035.81;5019297;28;20403;-76
2022/11/23 03:00:09;;;;;;;3.77;0.83;;;;;;;8.68;74.92;99032.31;5022841;28;20393;-76
2022/11/23 03:02:35;;;;;;;3.72;1.00;;;;;;;8.65;74.89;99026.63;5023583;28;20479;-76
2022/11/23 03:05:00;;;;;;;4.60;1.00;;;;;;;8.51;75.07;99022.81;5025738;28;20494;-76
2022/11/23 03:07:25;;;;;;;5.90;0.80;;;;;;;8.44;75.24;99030.34;5011631;28;20397;-76
2022/11/23 03:09:51;;;;;;;4.13;0.67;;;;;;;8.36;75.41;99026.28;5017416;28;20409;-76
2022/11/23 03:12:16;;;;;;;3.70;0.90;;;;;;;8.34;75.12;99023.84;5029735;28;20424;-76
2022/11/23 03:14:41;;;;;;;1.87;0.80;;;;;;;8.29;75.14;99028.41;5028836;28;20415;-76
2022/11/23 03:17:06;;;;;;;15.18;2.20;;;;;;;8.31;75.03;99016.28;5019678;28;20412;-76
2022/11/23 03:19:32;;;;;;;5.17;1.00;;;;;;;8.30;75.08;99019.22;5012647;28;20432;-77
2022/11/23 03:21:57;;;;;;;3.78;1.48;;;;;;;8.25;74.94;99019.19;5021878;28;20415;-76
2022/11/23 03:24:22;;;;;;;1.97;0.90;;;;;;;8.28;75.50;99019.50;5018978;28;20864;-76
2022/11/23 03:26:48;;;;;;;4.72;1.20;;;;;;;8.25;75.34;99016.50;5028572;28;20395;-76
2022/11/23 03:29:13;;;;;;;2.50;0.90;;;;;;;8.22;75.33;99025.94;5019074;28;20407;-76
2022/11/23 03:31:38;;;;;;;5.70;1.07;;;;;;;8.22;75.05;99022.44;5022466;28;20414;-76
2022/11/23 03:34:04;;;;;;;4.33;1.10;;;;;;;8.22;75.38;99027.81;5017272;28;20443;-76
2022/11/23 03:36:29;;;;;;;3.13;0.83;;;;;;;8.21;75.58;99026.19;5013463;28;20389;-77
2022/11/23 03:38:54;;;;;;;5.35;0.93;;;;;;;8.19;75.15;99031.88;5025747;28;20506;-76
2022/11/23 03:41:20;;;;;;;5.40;1.23;;;;;;;8.15;75.42;99022.66;5043926;28;20443;-76
2022/11/23 03:43:45;;;;;;;6.53;1.70;;;;;;;8.13;75.29;99032.09;5011089;28;20982;-76
2022/11/23 03:46:10;;;;;;;3.77;1.60;;;;;;;8.10;75.32;99035.34;5028356;28;20398;-76
2022/11/23 03:48:36;;;;;;;3.03;1.20;;;;;;;8.03;75.26;99032.88;5020302;28;20903;-77
2022/11/23 03:51:01;;;;;;;3.40;1.20;;;;;;;7.99;75.35;99028.25;5019802;28;20905;-76
2022/11/23 03:53:26;;;;;;;5.27;1.27;;;;;;;7.98;75.33;99032.03;5019002;28;20409;-76
2022/11/23 03:55:54;;;;;;;4.43;1.30;;;;;;;8.02;75.26;99019.63;5012221;28;20425;-76
2022/11/23 03:58:19;;;;;;;5.82;2.45;;;;;;;8.00;75.58;99025.28;5020310;28;20420;-76
2022/11/23 04:00:44;;;;;;;4.63;1.90;;;;;;;7.99;75.46;99034.47;5027711;28;20417;-76
2022/11/23 04:03:10;;;;;;;4.63;2.10;;;;;;;8.00;75.78;99027.19;5012073;28;20405;-76
2022/11/23 04:05:35;;;;;;;6.53;1.70;;;;;;;8.04;75.51;99022.88;5011821;28;20411;-76
2022/11/23 04:08:00;;;;;;;6.17;2.13;;;;;;;8.01;75.85;99024.22;5023865;28;20404;-76
2022/11/23 04:10:25;;;;;;;4.73;1.83;;;;;;;8.00;75.65;99022.59;5025173;28;20482;-76
2022/11/23 04:12:52;;;;;;;7.77;3.77;;;;;;;8.03;75.72;99023.97;5022460;28;20415;-77
2022/11/23 04:15:18;;;;;;;7.22;3.10;;;;;;;8.00;75.64;99032.59;5012061;28;20805;-76
2022/11/23 04:17:43;;;;;;;3.50;1.00;;;;;;;8.00;75.22;99019.88;5011857;28;20745;-76
2022/11/23 04:20:09;;;;;;;4.97;1.27;;;;;;;7.98;75.50;99015.84;5010622;28;20455;-76
2022/11/23 04:22:35;;;;;;;6.70;1.15;;;;;;;8.00;75.65;99017.19;5017818;28;20782;-77
2022/11/23 04:25:00;;;;;;;5.37;1.40;;;;;;;8.00;75.67;99019.09;5024417;28;20809;-77
2022/11/23 04:27:25;;;;;;;1.27;0.90;;;;;;;7.96;75.35;99015.31;5022644;28;20415;-77
2022/11/23 04:29:50;;;;;;;3.53;1.88;;;;;;;7.94;75.90;99020.13;5059780;28;20392;-76
2022/11/23 04:32:16;;;;;;;3.43;0.80;;;;;;;7.90;75.73;99014.47;5016923;28;20409;-76
2022/11/23 04:34:41;;;;;;;1.13;0.98;;;;;;;7.89;76.07;99015.53;5010369;28;20393;-76
2022/11/23 04:37:06;;;;;;;4.50;1.03;;;;;;;7.84;76.05;99023.59;5017952;28;20478;-77
2022/11/23 04:39:31;;;;;;;5.53;1.60;;;;;;;7.79;76.09;99018.19;5013558;28;20420;-76
2022/11/23 04:41:57;;;;;;;5.33;0.80;;;;;;;7.74;76.45;99018.94;5022634;28;20412;-76
2022/11/23 04:44:22;;;;;;;1.97;0.93;;;;;;;7.71;76.56;99019.47;5020023;28;20497;-76
2022/11/23 04:46:49;;;;;;;3.17;1.00;;;;;;;7.70;76.58;99019.75;5027849;28;20415;-76
2022/11/23 04:49:14;;;;;;;3.92;0.98;;;;;;;7.66;76.73;99021.34;5031817;28;20497;-76
2022/11/23 04:51:39;;;;;;;6.37;1.60;;;;;;;7.66;76.84;99021.34;5015395;28;20542;-76
2022/11/23 04:54:05;;;;;;;4.67;0.93;;;;;;;7.67;76.38;99026.47;5024100;28;20474;-76
2022/11/23 04:56:30;;;;;;;5.13;1.10;;;;;;;7.67;76.28;99023.75;5022480;28;20938;-76
2022/11/23 04:58:55;;;;;;;2.78;0.90;;;;;;;7.67;76.47;99023.75;5044222;28;20446;-77
2022/11/23 05:01:21;;;;;;;3.40;1.00;;;;;;;7.67;76.81;99021.06;5031177;28;20492;-76
2022/11/23 05:03:46;;;;;;;3.70;0.90;;;;;;;7.67;76.69;99014.88;5022763;28;20585;-76
2022/11/23 05:06:11;;;;;;;1.60;0.80;;;;;;;7.66;77.02;99021.34;5029337;28;20467;-76
2022/11/23 05:08:37;;;;;;;2.90;1.23;;;;;;;7.64;76.71;99010.81;5019871;28;20451;-77
2022/11/23 05:11:02;;;;;;;1.83;1.13;;;;;;;7.61;76.77;99018.59;5031155;28;20468;-77
2022/11/23 05:13:27;;;;;;;4.30;1.20;;;;;;;7.57;77.04;99023.72;5015337;28;20907;-76
2022/11/23 05:15:53;;;;;;;4.93;1.67;;;;;;;7.54;77.31;99018.81;5026961;28;20405;-76
2022/11/23 05:18:18;;;;;;;7.70;2.00;;;;;;;7.52;77.29;99020.16;5020911;28;20393;-76
2022/11/23 05:20:44;;;;;;;2.80;1.30;;;;;;;7.50;76.73;99011.53;5023094;28;20415;-77
2022/11/23 05:23:10;;;;;;;3.60;1.38;;;;;;;7.47;77.20;99020.97;5025959;28;20405;-77
2022/11/23 05:25:35;;;;;;;5.03;2.03;;;;;;;7.43;77.19;99027.13;5030418;28;20774;-77
2022/11/23 05:28:00;;;;;;;4.87;2.07;;;;;;;7.39;77.51;99023.31;5026738;28;20400;-77
2022/11/23 05:30:26;;;;;;;5.97;2.40;;;;;;;7.35;77.32;99024.88;5023046;28;20401;-76
2022/11/23 05:32:51;;;;;;;5.10;2.80;;;;;;;7.32;77.57;99018.16;5024180;28;20420;-76
2022/11/23 05:35:17;;;;;;;8.27;3.63;;;;;;;7.30;77.38;99026.50;5021216;28;20392;-76
2022/11/23 05:37:42;;;;;;;5.47;2.80;;;;;;;7.28;77.64;99022.41;5024191;28;20393;-76
2022/11/23 05:40:08;;;;;;;8.33;2.70;;;;;;;7.23;77.58;99022.38;5032246;28;20968;-76
2022/11/23 05:42:34;;;;;;;3.57;2.40;;;;;;;7.19;77.72;99029.34;5021503;28;20463;-76
2022/11/23 05:44:59;;;;;;;14.43;2.40;;;;;;;7.18;77.59;99031.25;5014336;28;20508;-77
2022/11/23 05:47:24;;;;;;;5.82;1.70;;;;;;;7.16;77.31;99028.00;5025437;28;20407;-77
2022/11/23 05:49:50;;;;;;;3.77;1.20;;;;;;;7.15;77.88;99030.94;5019147;28;20393;-76
2022/11/23 05:52:16;;;;;;;3.53;1.10;;;;;;;7.11;77.61;99027.94;5029660;28;20420;-76
2022/11/23 05:54:41;;;;;;;4.63;1.23;;;;;;;7.07;77.61;99034.13;5023780;28;20411;-77
2022/11/23 05:57:07;;;;;;;4.90;1.10;;;;;;;7.02;77.61;99040.25;5021811;28;20717;-77
2022/11/23 05:59:32;;;;;;;1.92;1.20;;;;;;;7.02;77.73;99039.44;5018711;28;20403;-77
2022/11/23 06:01:57;;;;;;;3.57;1.27;;;;;;;6.97;77.85;99040.22;5057894;28;20486;-75
2022/11/23 06:04:23;;;;;;;4.53;1.13;;;;;;;6.94;77.67;99045.31;5020141;28;20436;-76
2022/11/23 06:06:48;;;;;;;2.57;1.07;;;;;;;6.88;77.76;99044.47;5022355;28;20423;-76
2022/11/23 06:09:13;;;;;;;8.80;1.70;;;;;;;6.85;77.79;99039.56;5021598;28;20397;-75
2022/11/23 06:11:39;;;;;;;4.17;1.67;;;;;;;6.85;77.60;99044.16;5028307;28;20418;-75
2022/11/23 06:14:05;;;;;;;3.63;1.20;;;;;;;6.82;77.86;99040.06;5019923;28;20803;-75
2022/11/23 06:16:30;;;;;;;2.60;1.10;;;;;;;6.81;77.23;99040.34;5013754;28;20407;-76
2022/11/23 06:18:56;;;;;;;2.93;1.50;;;;;;;6.76;77.37;99036.53;5012983;28;20409;-76
2022/11/23 06:21:21;;;;;;;8.63;1.70;;;;;;;6.75;78.14;99040.28;5027793;28;20437;-75
2022/11/23 06:23:46;;;;;;;6.10;1.70;;;;;;;6.72;77.82;99035.41;5021106;28;20889;-75
2022/11/23 06:26:12;;;;;;;5.00;1.50;;;;;;;6.72;77.19;99035.41;5016585;28;20469;-76
2022/11/23 06:28:37;;;;;;;4.72;1.50;;;;;;;6.70;77.81;99036.72;5019736;28;20396;-74
2022/11/23 06:31:05;;;;;;;6.30;1.40;;;;;;;6.69;77.60;99033.22;5026695;28;20403;-77
2022/11/23 06:33:31;;;;;;;8.40;1.73;;;;;;;6.67;77.79;99035.38;5013932;28;20447;-76
2022/11/23 06:35:58;;;;;;;3.50;1.50;;;;;;;6.66;77.78;99039.13;5013244;28;20451;-76
2022/11/23 06:38:24;;;;;;;5.72;1.83;;;;;;;6.64;77.56;99030.50;5024788;28;20403;-76
2022/11/23 06:40:49;;;;;;;3.40;1.90;;;;;;;6.63;77.47;99039.63;5016237;28;20751;-75
2022/11/23 06:43:15;;;;;;;3.63;1.60;;;;;;;6.60;77.40;99033.94;5027193;28;20760;-76
2022/11/23 06:45:40;;;;;;;5.85;1.65;;;;;;;6.59;77.61;99037.69;5025715;28;20397;-76
2022/11/23 06:48:05;;;;;;;7.20;2.17;;;;;;;6.58;77.59;99038.78;5015879;28;20389;-76
2022/11/23 06:50:31;;;;;;;4.20;2.50;;;;;;;6.57;77.30;99042.53;5012973;28;20399;-76
2022/11/23 06:52:57;;;;;;;3.10;2.03;;;;;;;6.55;77.47;99042.75;5047784;28;20420;-75
2022/11/23 06:55:23;;;;;;;4.13;1.95;;;;;;;6.57;77.57;99047.91;5013905;28;20397;-76
2022/11/23 06:57:49;;;;;;;7.88;2.38;;;;;;;6.56;77.37;99044.41;5015846;28;20479;-75
2022/11/23 07:00:16;;;;;;;10.80;2.95;;;;;;;6.56;77.26;99054.34;5012254;28;20492;-75
2022/11/23 07:02:41;;;;;;;10.10;4.07;;;;;;;6.54;77.57;99061.88;5020164;28;20403;-76
2022/11/23 07:05:07;;;;;;;12.10;4.83;;;;;;;6.53;77.45;99055.66;5014150;28;20970;-76
2022/11/23 07:07:32;;;;;;;12.60;4.32;;;;;;;6.52;77.01;99067.47;5019269;28;20392;-76
2022/11/23 07:09:58;;;;;;;11.05;5.00;;;;;;;6.52;77.36;99064.78;5025957;28;21065;-76
2022/11/23 07:12:23;;;;;;;12.30;6.33;;;;;;;6.49;77.57;99059.91;5030504;28;20411;-76
2022/11/23 07:14:48;;;;;;;17.10;7.37;;;;;;;6.49;77.39;99070.69;5016865;28;20753;-75
2022/11/23 07:17:13;;;;;;;12.02;7.20;;;;;;;6.48;77.73;99070.94;5027003;28;20404;-75
2022/11/23 07:19:39;;;;;;;15.57;8.53;;;;;;;6.45;77.66;99069.59;5012639;28;20404;-75
2022/11/23 07:22:04;;;;;;;16.25;8.52;;;;;;;6.48;77.14;99073.66;5019569;28;20824;-75
2022/11/23 07:24:29;;;;;;;13.07;7.50;;;;;;;6.48;76.92;99070.94;5012688;28;20397;-76
2022/11/23 07:26:55;;;;;;;15.17;7.83;;;;;;;6.48;76.92;99081.72;5028135;28;20397;-75
2022/11/23 07:29:20;;;;;;;20.97;8.20;;;;;;;6.49;76.88;99080.63;5020619;28;20909;-75
2022/11/23 07:31:45;;;;;;;14.53;7.10;;;;;;;6.51;77.28;99075.84;5021471;28;20417;-75
2022/11/23 07:34:11;;;;;;;15.38;7.68;;;;;;;6.53;77.17;99081.75;5030873;28;20793;-76
2022/11/23 07:36:37;;;;;;;13.87;7.93;;;;;;;6.53;77.44;99077.19;5016082;28;20394;-76
2022/11/23 07:39:02;;;;;;;11.57;6.70;;;;;;;6.54;77.42;99075.31;5021112;28;20396;-76
2022/11/23 07:41:28;;;;;;;10.17;5.63;;;;;;;6.57;77.48;99072.94;5021734;28;20456;-76
2022/11/23 07:43:53;;;;;;;10.43;5.90;;;;;;;6.59;77.13;99084.25;5017654;28;20504;-75
2022/11/23 07:46:19;;;;;;;6.72;4.78;;;;;;;6.60;77.28;99082.38;5027204;28;20754;-76
2022/11/23 07:48:44;;;;;;;9.32;5.18;;;;;;;6.62;77.31;99081.06;5012238;28;20416;-75
2022/11/23 07:51:09;;;;;;;10.73;5.53;;;;;;;6.63;77.26;99074.63;5021552;28;20417;-75
2022/11/23 07:53:35;;;;;;;11.80;5.88;;;;;;;6.67;77.72;99080.31;5018967;28;20523;-76
2022/11/23 07:56:00;;;;;;;11.03;5.50;;;;;;;6.70;77.35;99075.25;5028051;28;20402;-76
2022/11/23 07:58:25;;;;;;;9.87;5.07;;;;;;;6.73;77.52;99073.91;5013602;28;20911;-76
2022/11/23 08:00:51;;;;;;;9.68;4.80;;;;;;;6.76;77.44;99078.78;5023458;28;20744;-75
2022/11/23 08:03:16;;;;;;;7.57;4.73;;;;;;;6.79;77.40;99081.78;5023388;28;20391;-75
2022/11/23 08:05:42;;;;;;;5.97;4.47;;;;;;;6.83;77.11;99082.09;5016030;28;20403;-76
2022/11/23 08:08:07;;;;;;;7.60;3.22;;;;;;;6.87;77.78;99077.03;5027943;28;20416;-75
2022/11/23 08:10:33;;;;;;;7.82;2.55;;;;;;;6.92;77.50;99075.19;5011129;28;20412;-75
2022/11/23 08:13:03;;;;;;;5.57;2.03;;;;;;;7.02;77.85;99077.97;5022565;28;20751;-75
2022/11/23 08:15:28;;;;;;;3.88;2.05;;;;;;;7.22;77.20;99078.16;5016386;28;20476;-75
2022/11/23 08:17:56;;;;;;;9.07;1.93;;;;;;;7.57;76.60;99074.13;5014712;28;20507;-76
2022/11/23 08:20:21;;;;;;;7.68;1.80;;;;;;;8.25;74.79;99065.91;5023001;28;20409;-75
2022/11/23 08:22:46;;;;;;;3.22;1.70;;;;;;;8.89;72.03;99062.06;5025314;28;20809;-75
2022/11/23 08:25:12;;;;;;;5.83;2.00;;;;;;;8.63;72.11;99066.56;5030217;28;20418;-75
2022/11/23 08:27:37;;;;;;;4.20;1.53;;;;;;;8.36;73.71;99065.97;5024539;28;20484;-76
2022/11/23 08:30:03;;;;;;;3.20;1.30;;;;;;;8.31;73.76;99061.34;5015805;28;20419;-76
2022/11/23 08:32:28;;;;;;;4.47;1.40;;;;;;;8.28;74.53;99068.09;5024024;28;20433;-76
2022/11/23 08:34:53;;;;;;;6.13;2.63;;;;;;;8.33;74.45;99072.72;5022231;28;20400;-76
2022/11/23 08:37:18;;;;;;;10.73;4.70;;;;;;;8.47;74.18;99065.72;5029374;28;20406;-75
2022/11/23 08:39:44;;;;;;;12.70;4.20;;;;;;;8.48;74.04;99063.84;5021003;28;20426;-76
2022/11/23 08:42:09;;;;;;;10.90;2.77;;;;;;;8.37;74.51;99064.88;5028690;28;20503;-75
2022/11/23 08:44:34;;;;;;;8.13;2.73;;;;;;;8.30;74.96;99059.72;5026229;28;20423;-76
2022/11/23 08:46:59;;;;;;;4.97;1.77;;;;;;;8.29;75.39;99058.13;5021672;28;20428;-75
2022/11/23 08:49:25;;;;;;;5.00;1.23;;;;;;;8.28;75.02;99054.59;5018664;28;20931;-75
2022/11/23 08:51:50;;;;;;;6.57;1.20;;;;;;;8.30;75.70;99044.34;5027139;28;20429;-75
2022/11/23 08:54:16;;;;;;;8.27;1.40;;;;;;;8.40;75.43;99053.56;5026506;28;20405;-75
2022/11/23 08:56:41;;;;;;;6.10;1.10;;;;;;;8.51;75.38;99052.50;5029792;28;20391;-75
2022/11/23 08:59:07;;;;;;;6.40;1.20;;;;;;;8.71;75.10;99044.47;5028900;28;20415;-75
2022/11/23 09:01:32;;;;;;;9.30;1.55;;;;;;;9.01;74.20;99049.94;5033699;28;20418;-76
2022/11/23 09:03:58;;;;;;;4.00;1.03;;;;;;;9.56;72.73;99054.50;5025047;28;20415;-75
2022/11/23 09:06:27;;;;;;;3.50;1.10;;;;;;;9.84;70.97;99059.34;5021602;28;20401;-76
2022/11/23 09:08:53;;;;;;;4.93;1.30;;;;;;;9.72;71.42;99066.13;5023141;28;20886;-75
2022/11/23 09:11:18;;;;;;;7.72;1.20;;;;;;;9.85;70.20;99054.72;5025728;28;20450;-75
2022/11/23 09:13:44;;;;;;;5.30;1.00;;;;;;;9.82;69.84;99058.00;5017264;28;20421;-75
2022/11/23 09:16:09;;;;;;;6.83;1.23;;;;;;;9.58;70.33;99055.03;5018299;28;20431;-75
2022/11/23 09:18:35;;;;;;;3.90;1.30;;;;;;;9.44;71.04;99061.28;5039883;28;20440;-76
2022/11/23 09:21:02;;;;;;;5.97;1.52;;;;;;;9.21;71.47;99059.94;5020159;28;20401;-76
2022/11/23 09:23:28;;;;;;;6.75;1.35;;;;;;;9.13;71.74;99061.28;5020552;28;20419;-75
2022/11/23 09:25:53;;;;;;;4.73;1.10;;;;;;;9.06;71.99;99062.63;5026912;28;20556;-76
2022/11/23 09:28:18;;;;;;;4.67;1.30;;;;;;;9.01;72.13;99065.31;5023549;28;20826;-76
2022/11/23 09:30:47;;;;;;;5.30;1.30;;;;;;;9.00;72.20;99059.09;5021162;28;20413;-75
2022/11/23 09:33:12;;;;;;;6.57;1.42;;;;;;;9.07;72.41;99054.25;5012917;28;20412;-76
2022/11/23 09:35:38;;;;;;;3.43;1.20;;;;;;;9.31;71.54;99066.16;5016724;28;20491;-75
2022/11/23 09:38:03;;;;;;;4.97;1.20;;;;;;;9.52;71.13;99066.94;5020504;28;20418;-76
2022/11/23 09:40:40;;;;;;;4.78;1.40;;;;;;;9.70;71.05;99071.81;5014890;28;20421;-76
2022/11/23 09:43:21;;;;;;;4.70;1.63;;;;;;;10.21;69.28;99066.28;5016198;28;20479;-76
2022/11/23 09:45:50;;;;;;;6.47;1.30;;;;;;;10.46;68.00;99078.94;5015356;28;20486;-76
2022/11/23 09:48:52;;;;;;;6.25;1.55;;;;;;;10.67;67.38;99072.34;5015910;28;20385;-76
2022/11/23 09:51:20;;;;;;;6.13;1.00;;;;;;;11.02;66.85;99064.00;5023794;28;20486;-76
2022/11/23 09:53:58;;;;;;;8.20;1.45;;;;;;;11.34;65.26;99071.63;5031748;28;20387;-76
2022/11/23 09:56:35;;;;;;;5.45;1.10;;;;;;;11.73;63.11;99063.44;5016304;28;20421;-76
2022/11/23 09:59:19;;;;;;;4.83;1.03;;;;;;;11.88;62.06;99072.28;5016437;28;20868;-77
2022/11/23 10:01:44;;;;;;;6.32;0.98;;;;;;;12.20;61.22;99060.78;5023902;28;20409;-75
2022/11/23 10:04:16;;;;;;;4.33;1.20;;;;;;;12.95;58.30;99060.88;5019899;28;20412;-76
2022/11/23 10:06:42;;;;;;;6.53;1.75;;;;;;;12.44;58.96;99063.50;5012115;28;20881;-76
2022/11/23 10:09:45;;;;;;;5.93;1.48;;;;;;;11.68;61.34;99068.91;5024970;28;20778;-76
2022/11/23 10:12:33;;;;;;;4.72;1.10;;;;;;;11.18;62.81;99062.00;5013229;28;20446;-76
2022/11/23 10:15:12;;;;;;;6.50;1.48;;;;;;;10.96;63.48;99067.03;5024283;28;20419;-76
2022/11/23 10:17:59;;;;;;;2.80;1.10;;;;;;;10.75;64.09;99066.34;5016178;28;20419;-76
2022/11/23 10:20:44;;;;;;;6.47;1.50;;;;;;;10.65;64.60;99064.50;5013020;28;20408;-76
2022/11/23 10:23:12;;;;;;;3.45;1.40;;;;;;;10.58;64.97;99058.56;5022461;28;20487;-77
2022/11/23 10:25:47;;;;;;;4.47;1.42;;;;;;;10.53;65.31;99057.78;5029479;28;20474;-76
2022/11/23 10:28:17;;;;;;;3.85;1.35;;;;;;;10.59;65.15;99048.53;5030528;28;20419;-76
2022/11/23 10:31:01;;;;;;;8.48;1.35;;;;;;;10.66;64.80;99051.75;5021919;28;20411;-76
2022/11/23 10:33:36;;;;;;;4.23;1.40;;;;;;;10.68;64.76;99052.28;5014541;28;20531;-76
2022/11/23 10:36:02;;;;;;;4.20;1.48;;;;;;;10.54;65.13;99051.28;5025510;28;20802;-76
2022/11/23 10:38:27;;;;;;;4.93;1.27;;;;;;;10.44;65.30;99054.03;5030334;28;20395;-76
2022/11/23 10:41:02;;;;;;;4.00;1.17;;;;;;;10.33;65.45;99048.69;5019048;28;20772;-76
2022/11/23 10:43:33;;;;;;;6.43;1.23;;;;;;;10.30;65.54;99049.22;5026342;28;20427;-76
2022/11/23 10:46:36;;;;;;;4.90;1.25;;;;;;;10.29;65.54;99041.38;5021676;28;20416;-76
2022/11/23 10:49:09;;;;;;;5.65;1.08;;;;;;;10.29;65.35;99044.06;5012987;28;20993;-76
2022/11/23 10:51:36;;;;;;;5.55;1.30;;;;;;;10.37;65.14;99035.38;5018950;28;20924;-76
2022/11/23 10:54:05;;;;;;;4.28;1.20;;;;;;;10.41;65.34;99037.25;5016802;28;20481;-76
2022/11/23 10:56:31;;;;;;;4.85;1.20;;;;;;;10.43;65.82;99028.84;5027167;28;20470;-76
2022/11/23 10:58:57;;;;;;;6.05;1.63;;;;;;;10.39;65.92;99027.78;5026770;28;20510;-76
2022/11/23 11:01:24;;;;;;;3.90;1.50;;;;;;;10.34;65.91;99023.19;5027750;28;20852;-77
2022/11/23 11:03:51;;;;;;;7.73;1.63;;;;;;;10.33;66.17;99021.59;5017888;28;20813;-77
2022/11/23 11:06:35;;;;;;;5.32;1.30;;;;;;;10.44;65.60;99013.41;5022622;28;20455;-76
2022/11/23 11:09:16;;;;;;;4.00;1.17;;;;;;;10.47;65.52;99015.56;5026922;28;20800;-76
2022/11/23 11:11:46;;;;;;;4.70;1.20;;;;;;;10.50;65.56;99005.00;5029294;28;20429;-77
2022/11/23 11:14:22;;;;;;;4.63;1.17;;;;;;;10.49;65.48;99010.66;5019570;28;20483;-76
2022/11/23 11:16:55;;;;;;;5.30;1.52;;;;;;;10.47;66.14;99010.97;5016334;28;20472;-77
2022/11/23 11:19:31;;;;;;;5.00;0.77;;;;;;;10.50;65.53;98998.75;5022952;28;20850;-76
2022/11/23 11:21:58;;;;;;;10.18;1.58;;;;;;;10.44;65.42;98989.84;5019007;28;20500;-77
2022/11/23 11:24:36;;;;;;;6.25;1.30;;;;;;;10.37;65.23;98992.84;5036687;28;20411;-76
2022/11/23 11:27:05;;;;;;;4.22;1.02;;;;;;;10.30;65.19;98983.44;5011907;28;20420;-77
2022/11/23 11:29:35;;;;;;;7.78;1.60;;;;;;;10.29;65.05;98985.31;5021530;28;20480;-77
2022/11/23 11:32:16;;;;;;;8.40;1.25;;;;;;;10.29;64.93;98979.09;5026568;28;20759;-77
2022/11/23 11:34:44;;;;;;;3.80;1.08;;;;;;;10.25;64.54;98981.53;5053920;28;20420;-77
2022/11/23 11:37:31;;;;;;;5.43;1.25;;;;;;;10.30;64.40;98970.72;5015880;28;20397;-77
2022/11/23 11:40:20;;;;;;;6.85;1.42;;;;;;;10.38;63.60;98975.53;5012748;28;20416;-78